Time;durP1;ratioP1;P1;durP2;ratioP2;P2;SDS_P1;SDS_P2;PMS_P1;PMS_P2;Temp;Humidity;BMP_temperature;BMP_pressure;BME280_temperature;BME280_humidity;BME280_pressure;Samples;Min_cycle;Max_cycle;Signal;HPM_P1;HPM_P2
2022/08/05 00:04:55;;;;;;;8.40;6.07;;;;;18.90;100986.00;;;;10427742;28;20214;-79
2022/08/05 00:09:57;;;;;;;8.98;6.55;;;;;18.90;100995.00;;;;10461345;28;20201;-79
2022/08/05 00:14:59;;;;;;;7.28;5.65;;;;;18.90;101002.00;;;;10423593;28;20193;-79
2022/08/05 00:20:21;;;;;;;10.32;5.32;;;;;18.80;101038.00;;;;10447561;28;20251;-79
2022/08/05 00:25:29;;;;;;;8.07;5.75;;;;;18.70;101049.00;;;;10421339;28;20560;-79
2022/08/05 00:30:47;;;;;;;10.38;5.95;;;;;18.60;101059.00;;;;10445137;28;20200;-79
2022/08/05 00:35:54;;;;;;;12.23;6.00;;;;;18.60;101086.00;;;;10442573;28;20194;-79
2022/08/05 00:41:30;;;;;;;9.65;6.05;;;;;18.40;101106.00;;;;10433841;28;20285;-79
2022/08/05 00:46:52;;;;;;;8.50;6.25;;;;;18.40;101090.00;;;;10447623;28;20208;-79
2022/08/05 00:52:05;;;;;;;8.75;6.20;;;;;18.40;101085.00;;;;10444056;28;20205;-79
2022/08/05 00:57:07;;;;;;;9.82;7.03;;;;;18.40;101086.00;;;;10436564;28;20193;-78
2022/08/05 01:02:09;;;;;;;8.32;6.88;;;;;18.40;101075.00;;;;10427694;28;20233;-79
2022/08/05 01:07:12;;;;;;;10.10;6.93;;;;;18.40;101052.00;;;;10444198;28;20707;-79
2022/08/05 01:12:33;;;;;;;10.57;7.47;;;;;18.40;100984.00;;;;10461460;28;20560;-79
2022/08/05 01:17:44;;;;;;;12.50;6.97;;;;;18.50;100856.00;;;;10460538;28;20243;-78
2022/08/05 01:23:15;;;;;;;9.45;6.20;;;;;18.30;100984.00;;;;10444453;28;20801;-79
2022/08/05 01:28:41;;;;;;;8.00;5.57;;;;;18.00;101010.00;;;;10476284;28;20194;-79
2022/08/05 01:33:56;;;;;;;10.10;6.30;;;;;17.90;101018.00;;;;10436433;28;20209;-78
2022/08/05 01:39:00;;;;;;;12.50;6.13;;;;;17.90;101036.00;;;;10404293;28;20197;-79
2022/08/05 01:44:06;;;;;;;10.02;6.28;;;;;18.00;101028.00;;;;10439534;28;20280;-79
2022/08/05 01:49:17;;;;;;;9.35;6.47;;;;;18.00;101013.00;;;;10457952;28;20284;-79
2022/08/05 01:54:33;;;;;;;12.20;5.93;;;;;17.90;101024.00;;;;10427349;28;20217;-79
2022/08/05 01:59:49;;;;;;;14.20;6.47;;;;;17.90;101011.00;;;;10450935;28;20651;-78
2022/08/05 02:04:55;;;;;;;10.85;6.68;;;;;17.90;101014.00;;;;10474646;28;20227;-78
2022/08/05 02:09:58;;;;;;;13.15;6.22;;;;;17.80;101018.00;;;;10454665;28;20193;-79
2022/08/05 02:15:25;;;;;;;9.43;6.55;;;;;17.80;101030.00;;;;10439047;28;20829;-79
2022/08/05 02:20:46;;;;;;;10.82;7.13;;;;;17.80;101047.00;;;;10449988;28;20265;-79
2022/08/05 02:25:51;;;;;;;13.20;7.47;;;;;17.80;101049.00;;;;10438807;28;20208;-79
2022/08/05 02:30:59;;;;;;;13.68;6.63;;;;;17.80;101050.00;;;;10458780;28;20197;-79
2022/08/05 02:36:03;;;;;;;11.52;7.28;;;;;17.70;101058.00;;;;10473168;28;20198;-79
2022/08/05 02:41:08;;;;;;;11.80;7.88;;;;;17.80;101040.00;;;;10436129;28;20588;-78
2022/08/05 02:46:19;;;;;;;16.27;8.40;;;;;17.80;101035.00;;;;10425435;28;20214;-79
2022/08/05 02:51:29;;;;;;;12.65;7.38;;;;;17.80;101035.00;;;;10431001;28;20197;-78
2022/08/05 02:56:51;;;;;;;16.95;7.55;;;;;17.80;101038.00;;;;10433972;28;20201;-79
2022/08/05 03:01:59;;;;;;;13.18;8.38;;;;;17.80;101036.00;;;;10462043;28;20214;-79
2022/08/05 03:07:01;;;;;;;13.32;7.85;;;;;17.90;101041.00;;;;10413858;28;20205;-79
2022/08/05 03:12:04;;;;;;;11.23;8.15;;;;;17.90;101032.00;;;;10437514;28;20198;-79
2022/08/05 03:17:06;;;;;;;18.33;8.32;;;;;17.90;101014.00;;;;10445210;28;20208;-79
2022/08/05 03:22:09;;;;;;;10.18;7.43;;;;;17.90;101011.00;;;;10464759;28;20216;-79
2022/08/05 03:27:20;;;;;;;13.65;8.90;;;;;17.90;100995.00;;;;10459311;28;20209;-79
2022/08/05 03:32:23;;;;;;;19.75;8.40;;;;;17.90;100989.00;;;;10436529;28;20228;-79
2022/08/05 03:37:32;;;;;;;16.53;8.67;;;;;17.80;100971.00;;;;10464024;28;20660;-79
2022/08/05 03:42:47;;;;;;;16.63;8.52;;;;;17.70;100998.00;;;;10411387;28;20197;-79
2022/08/05 03:47:53;;;;;;;15.75;9.73;;;;;17.70;101002.00;;;;10462501;28;20662;-79
2022/08/05 03:53:10;;;;;;;15.27;8.40;;;;;17.70;101012.00;;;;10453524;28;20193;-79
2022/08/05 03:58:35;;;;;;;13.55;9.90;;;;;17.80;101009.00;;;;10440179;28;20223;-79
2022/08/05 04:03:39;;;;;;;18.55;9.23;;;;;17.80;101002.00;;;;10442735;28;20621;-79
2022/08/05 04:09:04;;;;;;;15.68;8.85;;;;;17.70;101016.00;;;;10456032;28;20825;-79
2022/08/05 04:14:07;;;;;;;18.77;9.02;;;;;17.70;101018.00;;;;10429216;28;20213;-79
2022/08/05 04:19:19;;;;;;;15.15;8.98;;;;;17.70;101013.00;;;;10469782;28;20610;-79
2022/08/05 04:24:24;;;;;;;17.00;8.90;;;;;17.70;101005.00;;;;10461250;28;20202;-79
2022/08/05 04:29:28;;;;;;;9.25;8.23;;;;;17.60;101011.00;;;;10444541;28;20411;-79
2022/08/05 04:34:30;;;;;;;12.30;8.13;;;;;17.60;101017.00;;;;10451758;28;20194;-79
2022/08/05 04:39:37;;;;;;;10.38;8.85;;;;;17.50;101012.00;;;;10446841;28;20277;-79
2022/08/05 04:44:41;;;;;;;16.80;8.40;;;;;17.60;101007.00;;;;10444793;28;20232;-79
2022/08/05 04:49:42;;;;;;;13.18;7.88;;;;;17.50;101012.00;;;;10436394;28;20242;-79
2022/08/05 04:55:05;;;;;;;11.27;7.45;;;;;17.50;101010.00;;;;10445489;28;20194;-78
2022/08/05 05:00:16;;;;;;;16.83;8.02;;;;;17.50;101016.00;;;;10435013;28;20228;-79
2022/08/05 05:05:18;;;;;;;12.48;7.25;;;;;17.60;101030.00;;;;10438330;28;20244;-79
2022/08/05 05:10:31;;;;;;;10.68;7.78;;;;;17.60;101020.00;;;;10427971;28;20201;-78
2022/08/05 05:15:34;;;;;;;12.10;7.50;;;;;17.70;101034.00;;;;10436316;28;20205;-78
2022/08/05 05:20:56;;;;;;;12.23;8.38;;;;;17.70;101042.00;;;;10450039;28;20190;-79
2022/08/05 05:25:59;;;;;;;15.30;7.75;;;;;17.90;101041.00;;;;10420275;28;20259;-78
2022/08/05 05:31:01;;;;;;;9.50;7.55;;;;;18.20;101042.00;;;;10424322;28;20197;-79
2022/08/05 05:36:06;;;;;;;13.07;7.40;;;;;18.30;101042.00;;;;10418150;28;20211;-78
2022/08/05 05:41:11;;;;;;;12.32;7.20;;;;;18.50;101059.00;;;;10470848;28;20205;-79
2022/08/05 05:46:17;;;;;;;10.18;7.28;;;;;18.50;101063.00;;;;10435392;28;20208;-79
2022/08/05 05:51:24;;;;;;;15.95;8.05;;;;;18.60;101069.00;;;;10452973;28;20251;-80
2022/08/05 05:56:30;;;;;;;13.85;7.50;;;;;18.80;101083.00;;;;10436074;28;20189;-79
2022/08/05 06:01:40;;;;;;;10.00;6.65;;;;;18.90;101086.00;;;;10457573;28;20217;-80
2022/08/05 06:06:58;;;;;;;19.80;8.02;;;;;19.00;101088.00;;;;10426741;28;20228;-79
2022/08/05 06:12:02;;;;;;;13.50;7.20;;;;;19.10;101093.00;;;;10421266;28;20330;-79
2022/08/05 06:17:04;;;;;;;16.40;7.28;;;;;19.30;101110.00;;;;10457735;28;20266;-78
2022/08/05 06:22:28;;;;;;;10.75;6.35;;;;;19.50;101120.00;;;;10488600;28;20201;-78
2022/08/05 06:27:30;;;;;;;11.05;6.40;;;;;19.70;101124.00;;;;10436840;28;21002;-80
2022/08/05 06:32:52;;;;;;;8.80;6.30;;;;;20.00;101133.00;;;;10436014;28;20683;-79
2022/08/05 06:37:54;;;;;;;10.10;5.88;;;;;20.20;101134.00;;;;10436502;28;20225;-79
2022/08/05 06:43:01;;;;;;;11.43;6.32;;;;;20.20;101140.00;;;;10414566;28;20200;-79
2022/08/05 06:48:03;;;;;;;9.57;5.78;;;;;20.40;101137.00;;;;10455295;28;20280;-79
2022/08/05 06:53:25;;;;;;;13.88;6.70;;;;;20.80;101152.00;;;;10440549;28;20197;-79
2022/08/05 06:58:30;;;;;;;9.05;6.40;;;;;21.10;101168.00;;;;10440163;28;20197;-79
2022/08/05 07:03:37;;;;;;;12.02;5.80;;;;;21.10;101167.00;;;;10449707;28;20210;-78
2022/08/05 07:08:41;;;;;;;10.20;7.35;;;;;21.60;101169.00;;;;10419093;28;20202;-78
2022/08/05 07:19:07;;;;;;;7.63;4.85;;;;;23.30;101182.00;;;;10466749;28;20243;-79
2022/08/05 07:24:10;;;;;;;10.38;4.40;;;;;22.80;101194.00;;;;10415326;28;20194;-79
2022/08/05 07:29:13;;;;;;;7.57;5.00;;;;;22.30;101194.00;;;;10424449;28;20189;-78
2022/08/05 07:34:15;;;;;;;8.45;4.57;;;;;22.60;101210.00;;;;10437154;28;20201;-78
2022/08/05 07:39:22;;;;;;;8.63;4.60;;;;;22.90;101212.00;;;;10451701;28;20244;-78
2022/08/05 07:44:44;;;;;;;8.57;4.90;;;;;23.10;101215.00;;;;10447920;28;20205;-77
2022/08/05 07:49:47;;;;;;;9.90;5.05;;;;;23.70;101221.00;;;;10453673;28;20189;-78
2022/08/05 07:54:55;;;;;;;7.45;4.18;;;;;24.00;101216.00;;;;10435392;28;20300;-78
2022/08/05 07:59:58;;;;;;;10.98;4.05;;;;;24.70;101231.00;;;;10451683;28;20190;-78
2022/08/05 08:05:00;;;;;;;7.18;4.03;;;;;24.70;101217.00;;;;10458734;28;20572;-78
2022/08/05 08:10:05;;;;;;;8.38;3.20;;;;;24.60;101230.00;;;;10444823;28;20201;-78
2022/08/05 08:15:09;;;;;;;7.45;3.10;;;;;24.40;101236.00;;;;10480570;28;20186;-78
2022/08/05 08:20:16;;;;;;;7.68;2.67;;;;;25.10;101239.00;;;;10460241;28;20186;-78
2022/08/05 08:25:38;;;;;;;5.18;2.53;;;;;25.80;101240.00;;;;10464241;28;20205;-78
2022/08/05 08:31:01;;;;;;;8.32;5.75;;;;;26.30;101234.00;;;;10449272;28;20193;-78
2022/08/05 08:36:06;;;;;;;5.45;2.55;;;;;26.20;101244.00;;;;10450511;28;20669;-78
2022/08/05 08:41:32;;;;;;;5.57;2.00;;;;;25.50;101251.00;;;;10461343;28;20732;-78
2022/08/05 08:46:55;;;;;;;4.20;2.40;;;;;23.60;101260.00;;;;10431423;28;20198;-78
2022/08/05 08:52:12;;;;;;;5.85;2.25;;;;;22.90;101274.00;;;;10407374;28;20186;-78
2022/08/05 08:57:15;;;;;;;5.28;2.45;;;;;24.00;101271.00;;;;10470604;28;20193;-78
2022/08/05 09:02:19;;;;;;;6.45;2.85;;;;;26.40;101269.00;;;;10459695;28;20214;-78
2022/08/05 09:07:21;;;;;;;5.00;1.95;;;;;28.60;101285.00;;;;10458375;28;20810;-78
2022/08/05 09:12:30;;;;;;;3.25;1.80;;;;;27.40;101295.00;;;;10461264;28;20280;-78
2022/08/05 09:17:34;;;;;;;4.43;1.80;;;;;24.50;101298.00;;;;10444758;28;20254;-79
2022/08/05 09:23:10;;;;;;;4.22;1.95;;;;;23.30;101301.00;;;;10403551;28;20200;-78
2022/08/05 09:28:23;;;;;;;3.63;1.83;;;;;25.60;101299.00;;;;10446035;28;20576;-78
2022/08/05 09:33:49;;;;;;;4.03;1.80;;;;;28.00;101294.00;;;;10469231;28;20684;-79
2022/08/05 09:38:59;;;;;;;4.22;1.92;;;;;29.80;101293.00;;;;10479043;28;20197;-78
2022/08/05 09:44:03;;;;;;;5.38;1.40;;;;;27.40;101308.00;;;;10424924;28;20248;-79
2022/08/05 09:49:22;;;;;;;3.28;1.38;;;;;24.10;101311.00;;;;10455679;28;20654;-78
2022/08/05 09:55:08;;;;;;;1.83;1.40;;;;;24.90;101290.00;;;;10463466;28;20683;-79
2022/08/05 10:00:30;;;;;;;3.63;1.52;;;;;27.10;101300.00;;;;10471863;28;20648;-78
2022/08/05 10:05:32;;;;;;;2.60;1.33;;;;;27.90;101298.00;;;;10458622;28;20217;-78
2022/08/05 10:10:45;;;;;;;3.38;1.67;;;;;27.90;101311.00;;;;10444576;28;20193;-78
2022/08/05 10:15:51;;;;;;;4.22;1.88;;;;;27.90;101300.00;;;;10438427;28;20203;-78
2022/08/05 10:20:56;;;;;;;4.88;2.30;;;;;28.10;101294.00;;;;10454565;28;20202;-78
2022/08/05 10:26:09;;;;;;;5.18;2.13;;;;;26.30;101306.00;;;;10434498;28;20202;-78
2022/08/05 10:31:17;;;;;;;5.55;1.70;;;;;25.90;101305.00;;;;10455155;28;20204;-78
2022/08/05 10:36:40;;;;;;;3.65;1.70;;;;;28.60;101306.00;;;;10446074;28;20276;-78
2022/08/05 10:41:49;;;;;;;5.72;1.85;;;;;28.10;101310.00;;;;10435671;28;20252;-78
2022/08/05 10:46:54;;;;;;;2.53;1.40;;;;;27.70;101307.00;;;;10459474;28;20564;-78
2022/08/05 10:51:57;;;;;;;2.45;1.30;;;;;28.70;101318.00;;;;10417333;28;20210;-78
2022/08/05 10:57:01;;;;;;;2.67;1.20;;;;;29.90;101317.00;;;;10424925;28;20212;-78
2022/08/05 11:02:12;;;;;;;3.13;1.08;;;;;30.70;101323.00;;;;10439962;28;20229;-78
2022/08/05 11:07:34;;;;;;;3.63;1.00;;;;;29.40;101335.00;;;;10450711;28;20198;-78
2022/08/05 11:12:58;;;;;;;1.95;0.80;;;;;30.40;101327.00;;;;10466137;28;20186;-78
2022/08/05 11:18:28;;;;;;;2.63;0.90;;;;;30.90;101321.00;;;;10491955;28;20681;-79
2022/08/05 11:23:35;;;;;;;1.95;0.93;;;;;31.30;101332.00;;;;10432121;28;20198;-79
2022/08/05 11:28:58;;;;;;;1.10;0.90;;;;;31.30;101341.00;;;;10452783;28;20299;-79
2022/08/05 11:34:13;;;;;;;4.95;1.27;;;;;30.00;101350.00;;;;10426360;28;20263;-79
2022/08/05 11:39:49;;;;;;;3.90;0.90;;;;;30.80;101361.00;;;;10451654;28;20706;-79
2022/08/05 11:45:03;;;;;;;6.75;0.98;;;;;31.40;101365.00;;;;10450250;28;20220;-79
2022/08/05 11:50:06;;;;;;;2.33;1.00;;;;;28.30;101392.00;;;;10461275;28;20264;-80
2022/08/05 11:55:10;;;;;;;1.65;0.82;;;;;27.50;101376.00;;;;10413898;28;20209;-79
2022/08/05 12:00:30;;;;;;;5.10;1.45;;;;;29.40;101361.00;;;;10465653;28;20561;-79
2022/08/05 12:05:32;;;;;;;2.40;1.20;;;;;29.60;101387.00;;;;10464256;28;20561;-79
2022/08/05 12:10:41;;;;;;;6.45;1.48;;;;;29.40;101387.00;;;;10465305;28;20194;-79
2022/08/05 12:15:46;;;;;;;2.85;1.08;;;;;27.90;101402.00;;;;10480243;28;20198;-78
2022/08/05 12:20:51;;;;;;;3.80;1.38;;;;;28.80;101391.00;;;;10428552;28;20198;-79
2022/08/05 12:25:53;;;;;;;3.22;1.25;;;;;29.40;101416.00;;;;10463367;28;20205;-79
2022/08/05 12:30:58;;;;;;;5.18;1.23;;;;;29.40;101417.00;;;;10461114;28;20280;-79
2022/08/05 12:36:05;;;;;;;2.05;1.20;;;;;26.90;101417.00;;;;10422081;28;20317;-79
2022/08/05 12:41:11;;;;;;;1.77;0.93;;;;;26.00;101425.00;;;;10413019;28;20198;-79
2022/08/05 12:46:29;;;;;;;3.05;1.10;;;;;28.50;101426.00;;;;10442318;28;20203;-79
2022/08/05 12:51:45;;;;;;;3.85;0.90;;;;;29.90;101433.00;;;;10426666;28;20421;-79
2022/08/05 12:57:10;;;;;;;2.30;0.70;;;;;30.40;101445.00;;;;10434257;28;20640;-78
2022/08/05 13:02:26;;;;;;;1.25;1.02;;;;;29.90;101458.00;;;;10443046;28;20279;-78
2022/08/05 13:07:31;;;;;;;3.35;0.77;;;;;31.00;101457.00;;;;10453733;28;20198;-79
2022/08/05 13:12:55;;;;;;;4.63;1.10;;;;;30.10;101465.00;;;;10441992;28;20193;-78
2022/08/05 13:17:59;;;;;;;2.75;1.15;;;;;30.30;101461.00;;;;10476952;28;20664;-79
2022/08/05 13:23:01;;;;;;;3.17;1.30;;;;;31.30;101458.00;;;;10445197;28;20197;-79
2022/08/05 13:28:08;;;;;;;2.22;0.75;;;;;31.60;101467.00;;;;10450403;28;20672;-79
2022/08/05 13:33:11;;;;;;;3.13;0.70;;;;;29.70;101470.00;;;;10443710;28;20197;-79
2022/08/05 13:38:33;;;;;;;3.40;0.52;;;;;27.20;101487.00;;;;10462950;28;20280;-79
2022/08/05 13:43:39;;;;;;;0.88;0.43;;;;;25.50;101480.00;;;;10420661;28;20279;-79
2022/08/05 13:48:54;;;;;;;2.50;0.90;;;;;25.10;101484.00;;;;10429169;28;20217;-79
2022/08/05 13:54:00;;;;;;;1.70;0.55;;;;;27.90;101487.00;;;;10438082;28;20198;-78
2022/08/05 13:59:03;;;;;;;3.55;0.63;;;;;27.90;101492.00;;;;10434148;28;20198;-79
2022/08/05 14:09:28;;;;;;;1.17;0.70;;;;;26.40;101501.00;;;;10459795;28;20488;-78
2022/08/05 14:14:30;;;;;;;1.25;0.50;;;;;26.10;101511.00;;;;10456729;28;20304;-79
2022/08/05 14:19:34;;;;;;;1.73;0.43;;;;;26.00;101524.00;;;;10420752;28;20193;-78
2022/08/05 14:24:56;;;;;;;0.52;0.52;;;;;26.10;101521.00;;;;10475222;28;20189;-78
2022/08/05 14:29:58;;;;;;;0.95;0.50;;;;;28.50;101514.00;;;;10418369;28;20221;-79
2022/08/05 14:35:00;;;;;;;4.68;0.60;;;;;27.50;101529.00;;;;10459612;28;20656;-78
2022/08/05 14:40:04;;;;;;;0.63;0.50;;;;;26.70;101509.00;;;;10493414;28;20665;-78
2022/08/05 14:45:07;;;;;;;0.80;0.50;;;;;31.80;101508.00;;;;10460254;28;20208;-78
2022/08/05 14:50:12;;;;;;;1.33;0.52;;;;;33.60;101526.00;;;;10468361;28;20208;-78
2022/08/05 14:55:19;;;;;;;1.90;0.60;;;;;34.10;101528.00;;;;10469390;28;20190;-78
2022/08/05 15:00:23;;;;;;;1.60;0.60;;;;;34.40;101529.00;;;;10430261;28;20190;-79
2022/08/05 15:05:29;;;;;;;2.72;0.60;;;;;29.30;101523.00;;;;10457328;28;20225;-78
2022/08/05 15:10:51;;;;;;;1.00;0.55;;;;;27.10;101538.00;;;;10430762;28;20204;-78
2022/08/05 15:15:55;;;;;;;0.73;0.47;;;;;25.70;101544.00;;;;10467003;28;20205;-78
2022/08/05 15:20:57;;;;;;;1.17;0.50;;;;;25.30;101533.00;;;;10453143;28;20942;-78
2022/08/05 15:26:08;;;;;;;1.70;1.00;;;;;24.00;101555.00;;;;10434494;28;20204;-79
2022/08/05 15:31:10;;;;;;;2.20;1.00;;;;;27.50;101548.00;;;;10456486;28;20195;-79
2022/08/05 15:36:12;;;;;;;2.70;0.50;;;;;27.30;101548.00;;;;10457775;28;20187;-78
2022/08/05 15:41:25;;;;;;;1.90;0.68;;;;;29.70;101558.00;;;;10445200;28;20198;-79
2022/08/05 15:46:47;;;;;;;4.07;0.93;;;;;31.80;101544.00;;;;10425744;28;20209;-78
2022/08/05 15:51:53;;;;;;;0.85;0.70;;;;;31.50;101562.00;;;;10410167;28;20239;-78
2022/08/05 15:57:15;;;;;;;1.55;0.80;;;;;26.80;101567.00;;;;10453781;28;20190;-77
2022/08/05 16:02:17;;;;;;;3.03;0.80;;;;;25.60;101576.00;;;;10459785;28;20213;-78
2022/08/05 16:07:26;;;;;;;4.35;0.75;;;;;25.30;101574.00;;;;10408116;28;20213;-78
2022/08/05 16:12:30;;;;;;;1.45;0.50;;;;;24.40;101585.00;;;;10423183;28;20191;-78
2022/08/05 16:17:32;;;;;;;1.52;0.50;;;;;23.80;101592.00;;;;10440617;28;20236;-76
2022/08/05 16:22:34;;;;;;;3.83;0.73;;;;;23.60;101594.00;;;;10414697;28;20200;-78
2022/08/05 16:27:39;;;;;;;3.15;0.82;;;;;23.10;101594.00;;;;10428232;28;20241;-79
2022/08/05 16:33:01;;;;;;;3.40;0.63;;;;;22.70;101590.00;;;;10452241;28;20268;-78
2022/08/05 16:38:02;;;;;;;4.32;0.80;;;;;22.40;101606.00;;;;10430833;28;20236;-78
2022/08/05 16:43:26;;;;;;;1.33;0.88;;;;;22.40;101621.00;;;;10456839;28;20657;-78
2022/08/05 16:48:28;;;;;;;3.55;1.10;;;;;22.10;101630.00;;;;10444630;28;20202;-78
2022/08/05 16:53:38;;;;;;;2.58;0.60;;;;;22.10;101625.00;;;;10434182;28;20185;-77
2022/08/05 16:59:02;;;;;;;3.13;0.60;;;;;21.90;101635.00;;;;10438539;28;20239;-78
2022/08/05 17:04:09;;;;;;;1.95;0.90;;;;;21.70;101651.00;;;;10452975;28;20213;-78
2022/08/05 17:09:11;;;;;;;1.98;0.65;;;;;21.50;101660.00;;;;10462270;28;20210;-77
2022/08/05 17:14:15;;;;;;;2.97;0.70;;;;;21.30;101667.00;;;;10473229;28;20207;-78
2022/08/05 17:19:36;;;;;;;3.15;0.85;;;;;21.10;101672.00;;;;10409249;28;20182;-77
2022/08/05 17:24:47;;;;;;;2.95;0.90;;;;;20.90;101674.00;;;;10409776;28;20178;-77
2022/08/05 17:30:05;;;;;;;2.10;0.90;;;;;20.70;101685.00;;;;10418370;28;20691;-77
2022/08/05 17:35:22;;;;;;;3.00;0.93;;;;;20.50;101695.00;;;;10434851;28;20621;-77
2022/08/05 17:40:33;;;;;;;3.80;0.77;;;;;20.40;101705.00;;;;10433698;28;20189;-77
2022/08/05 17:45:35;;;;;;;3.90;0.93;;;;;20.20;101717.00;;;;10429262;28;20224;-77
2022/08/05 17:50:41;;;;;;;9.60;1.08;;;;;20.10;101731.00;;;;10466618;28;20591;-77
2022/08/05 17:55:43;;;;;;;2.03;1.00;;;;;19.90;101724.00;;;;10448773;28;20190;-77
2022/08/05 18:00:47;;;;;;;3.95;0.70;;;;;19.80;101738.00;;;;10448994;28;20202;-76
2022/08/05 18:05:52;;;;;;;4.22;0.90;;;;;19.60;101736.00;;;;10434350;28;20198;-77
2022/08/05 18:11:03;;;;;;;2.80;0.80;;;;;19.50;101753.00;;;;10440184;28;20193;-77
2022/08/05 18:16:06;;;;;;;5.03;1.00;;;;;19.30;101752.00;;;;10432842;28;20297;-77
2022/08/05 18:21:15;;;;;;;3.60;1.35;;;;;19.10;101771.00;;;;10439344;28;20596;-77
2022/08/05 18:26:24;;;;;;;6.63;1.00;;;;;19.00;101771.00;;;;10400422;28;20677;-77
2022/08/05 18:31:34;;;;;;;5.82;1.42;;;;;18.90;101785.00;;;;10430999;28;20193;-77
2022/08/05 18:36:37;;;;;;;1.52;0.70;;;;;18.80;101792.00;;;;10426186;28;20289;-77
2022/08/05 18:41:44;;;;;;;2.92;0.80;;;;;18.60;101797.00;;;;10409084;28;20881;-78
2022/08/05 18:47:02;;;;;;;2.70;0.85;;;;;18.40;101802.00;;;;10404229;28;20210;-77
2022/08/05 18:57:39;;;;;;;2.63;0.70;;;;;18.10;101814.00;;;;10446425;28;20190;-77
2022/08/05 19:02:56;;;;;;;3.78;1.30;;;;;17.90;101814.00;;;;10427904;28;20584;-77
2022/08/05 19:08:06;;;;;;;2.28;0.90;;;;;17.70;101825.00;;;;10430421;28;20323;-77
2022/08/05 19:13:14;;;;;;;2.40;0.70;;;;;17.60;101831.00;;;;10445376;28;20255;-77
2022/08/05 19:18:17;;;;;;;3.17;0.65;;;;;17.40;101826.00;;;;10429366;28;20633;-77
2022/08/05 19:23:24;;;;;;;4.00;0.75;;;;;17.20;101837.00;;;;10463755;28;20189;-77
2022/08/05 19:28:49;;;;;;;1.77;0.82;;;;;17.00;101838.00;;;;10449506;28;20198;-77
2022/08/05 19:33:52;;;;;;;3.30;0.80;;;;;16.80;101842.00;;;;10427451;28;20198;-77
2022/08/05 19:38:59;;;;;;;1.73;0.60;;;;;16.60;101852.00;;;;10413035;28;20190;-77
2022/08/05 19:44:08;;;;;;;3.40;0.93;;;;;16.50;101861.00;;;;10430509;28;20618;-77
2022/08/05 19:49:15;;;;;;;2.33;0.70;;;;;16.30;101875.00;;;;10412267;28;20221;-77
2022/08/05 19:54:20;;;;;;;3.13;0.80;;;;;16.10;101881.00;;;;10466635;28;20283;-77
2022/08/05 19:59:35;;;;;;;5.00;0.80;;;;;15.90;101888.00;;;;10437393;28;20259;-77
2022/08/05 20:04:58;;;;;;;1.93;0.90;;;;;15.60;101895.00;;;;10454223;28;20591;-77
2022/08/05 20:10:03;;;;;;;3.57;1.10;;;;;15.40;101896.00;;;;10435186;28;20221;-77
2022/08/05 20:15:18;;;;;;;4.17;1.00;;;;;15.30;101905.00;;;;10417912;28;20535;-77
2022/08/05 20:20:44;;;;;;;4.93;1.07;;;;;15.20;101903.00;;;;10437817;28;20198;-77
2022/08/05 20:25:47;;;;;;;3.53;0.83;;;;;14.90;101913.00;;;;10403142;28;20546;-77
2022/08/05 20:30:54;;;;;;;2.33;0.90;;;;;14.70;101910.00;;;;10411295;28;20206;-77
2022/08/05 20:35:58;;;;;;;1.63;0.80;;;;;14.60;101927.00;;;;10450093;28;20217;-77
2022/08/05 20:41:04;;;;;;;1.33;0.73;;;;;14.40;101923.00;;;;10434536;28;20251;-76
2022/08/05 20:46:11;;;;;;;5.07;1.23;;;;;14.30;101920.00;;;;10439567;28;20265;-76
2022/08/05 20:51:26;;;;;;;2.57;0.90;;;;;14.20;101917.00;;;;10450106;28;20276;-76
2022/08/05 20:56:32;;;;;;;3.53;0.93;;;;;14.00;101917.00;;;;10392013;28;20741;-76
2022/08/05 21:01:44;;;;;;;4.40;1.17;;;;;13.90;101922.00;;;;10417187;28;20220;-77
2022/08/05 21:06:49;;;;;;;3.27;1.43;;;;;13.80;101929.00;;;;10465727;28;20201;-77
2022/08/05 21:11:54;;;;;;;3.90;0.90;;;;;13.80;101927.00;;;;10439256;28;20190;-77
2022/08/05 21:17:17;;;;;;;1.60;0.87;;;;;13.80;101928.00;;;;10433323;28;20714;-77
2022/08/05 21:22:31;;;;;;;3.90;1.23;;;;;13.60;101921.00;;;;10406889;28;20629;-77
2022/08/05 21:27:34;;;;;;;3.70;0.90;;;;;13.50;101931.00;;;;10400567;28;20206;-77
2022/08/05 21:32:41;;;;;;;6.03;0.90;;;;;13.40;101942.00;;;;10449068;28;20197;-77
2022/08/05 21:37:44;;;;;;;3.17;1.00;;;;;13.20;101948.00;;;;10440997;28;20201;-77
2022/08/05 21:42:54;;;;;;;3.50;1.20;;;;;13.00;101957.00;;;;10388577;28;20194;-77
2022/08/05 21:48:07;;;;;;;6.23;1.13;;;;;12.90;101957.00;;;;10413044;28;20213;-77
2022/08/05 21:53:10;;;;;;;6.90;1.70;;;;;12.90;101957.00;;;;10446168;28;20221;-77
2022/08/05 21:58:19;;;;;;;5.40;1.07;;;;;12.90;101961.00;;;;10430134;28;20190;-77
2022/08/05 22:03:33;;;;;;;1.80;1.00;;;;;12.90;101970.00;;;;10431377;28;20305;-77
2022/08/05 22:08:54;;;;;;;4.10;1.10;;;;;12.80;101973.00;;;;10423067;28;20238;-77
2022/08/05 22:14:03;;;;;;;4.43;1.00;;;;;12.80;101986.00;;;;10421527;28;20201;-77
2022/08/05 22:19:27;;;;;;;2.70;0.83;;;;;12.70;101986.00;;;;10436233;28;20189;-77
2022/08/05 22:30:32;;;;;;;3.97;1.10;;;;;12.50;101984.00;;;;10419847;28;20234;-77
2022/08/05 22:35:39;;;;;;;3.60;1.30;;;;;12.30;101995.00;;;;10460068;28;20212;-77
2022/08/05 22:40:50;;;;;;;5.00;1.47;;;;;12.30;102007.00;;;;10446844;28;20243;-77
2022/08/05 22:45:56;;;;;;;4.90;2.00;;;;;12.30;102002.00;;;;10420819;28;20209;-77
2022/08/05 22:51:05;;;;;;;7.63;1.87;;;;;12.30;102005.00;;;;10432002;28;20557;-77
2022/08/05 22:56:23;;;;;;;9.37;1.80;;;;;12.20;102018.00;;;;10446471;28;20204;-77
2022/08/05 23:01:32;;;;;;;2.27;1.23;;;;;12.10;102026.00;;;;10420747;28;20225;-77
2022/08/05 23:06:54;;;;;;;4.10;1.40;;;;;12.10;102020.00;;;;10426020;28;20201;-77
2022/08/05 23:11:57;;;;;;;6.27;1.20;;;;;12.00;102020.00;;;;10436378;28;20201;-77
2022/08/05 23:22:27;;;;;;;4.30;1.50;;;;;11.90;102019.00;;;;10448074;28;20217;-77
2022/08/05 23:27:32;;;;;;;3.90;1.30;;;;;11.80;102021.00;;;;10434585;28;20239;-77
2022/08/05 23:32:54;;;;;;;3.77;1.30;;;;;11.70;102020.00;;;;10437644;28;20235;-77
2022/08/05 23:37:59;;;;;;;8.60;3.20;;;;;11.70;102034.00;;;;10435192;28;20209;-77
2022/08/05 23:43:03;;;;;;;7.80;3.87;;;;;11.70;102041.00;;;;10438634;28;20594;-77
2022/08/05 23:48:25;;;;;;;5.97;3.30;;;;;11.60;102045.00;;;;10453781;28;20811;-77
2022/08/05 23:53:29;;;;;;;5.67;2.97;;;;;11.50;102051.00;;;;10410075;28;20194;-77
2022/08/05 23:58:48;;;;;;;5.03;2.70;;;;;11.30;102066.00;;;;10431967;28;20193;-77
